sensor_id;sensor_type;location;lat;lon;timestamp;temperature;humidity
6903;DHT22;20232;49.408;8.702;2023-02-25T05:02:45;5.00;99.90
6903;DHT22;20232;49.408;8.702;2023-02-25T05:05:11;5.00;99.90
6903;DHT22;20232;49.408;8.702;2023-02-25T05:07:36;5.00;99.90
6903;DHT22;20232;49.408;8.702;2023-02-25T05:10:04;5.00;99.90
6903;DHT22;20232;49.408;8.702;2023-02-25T05:12:30;5.00;99.90
6903;DHT22;20232;49.408;8.702;2023-02-25T05:14:55;5.00;99.90
6903;DHT22;20232;49.408;8.702;2023-02-25T05:17:21;5.00;99.90
6903;DHT22;20232;49.408;8.702;2023-02-25T05:19:46;5.00;99.90
6903;DHT22;20232;49.408;8.702;2023-02-25T05:22:12;4.90;99.90
6903;DHT22;20232;49.408;8.702;2023-02-25T05:24:38;4.90;99.90
6903;DHT22;20232;49.408;8.702;2023-02-25T05:27:03;4.90;99.90
6903;DHT22;20232;49.408;8.702;2023-02-25T05:29:34;4.90;99.90
6903;DHT22;20232;49.408;8.702;2023-02-25T05:32:00;4.90;99.90
6903;DHT22;20232;49.408;8.702;2023-02-25T05:34:25;4.90;99.90
6903;DHT22;20232;49.408;8.702;2023-02-25T05:36:51;5.00;99.90
6903;DHT22;20232;49.408;8.702;2023-02-25T05:39:16;5.00;99.90
6903;DHT22;20232;49.408;8.702;2023-02-25T05:41:42;5.00;99.90
6903;DHT22;20232;49.408;8.702;2023-02-25T05:44:09;5.00;99.90
6903;DHT22;20232;49.408;8.702;2023-02-25T05:46:35;5.00;99.90
6903;DHT22;20232;49.408;8.702;2023-02-25T05:49:01;5.00;99.90
6903;DHT22;20232;49.408;8.702;2023-02-25T05:51:26;5.10;99.90
6903;DHT22;20232;49.408;8.702;2023-02-25T05:53:52;5.10;99.90
6903;DHT22;20232;49.408;8.702;2023-02-25T05:56:21;5.10;99.90
6903;DHT22;20232;49.408;8.702;2023-02-25T05:58:47;5.10;99.90
6903;DHT22;20232;49.408;8.702;2023-02-25T06:01:15;5.10;99.90
6903;DHT22;20232;49.408;8.702;2023-02-25T06:03:42;5.10;99.90
6903;DHT22;20232;49.408;8.702;2023-02-25T06:06:09;5.10;99.90
6903;DHT22;20232;49.408;8.702;2023-02-25T06:08:39;5.10;99.90
6903;DHT22;20232;49.408;8.702;2023-02-25T06:11:05;5.10;99.90
6903;DHT22;20232;49.408;8.702;2023-02-25T06:13:31;5.20;99.90
6903;DHT22;20232;49.408;8.702;2023-02-25T06:15:57;5.20;99.90
6903;DHT22;20232;49.408;8.702;2023-02-25T06:18:22;5.20;99.90
6903;DHT22;20232;49.408;8.702;2023-02-25T06:20:48;5.20;99.90
6903;DHT22;20232;49.408;8.702;2023-02-25T06:23:14;5.10;99.90
6903;DHT22;20232;49.408;8.702;2023-02-25T06:25:40;5.10;99.90
6903;DHT22;20232;49.408;8.702;2023-02-25T06:28:05;5.20;99.90
6903;DHT22;20232;49.408;8.702;2023-02-25T06:30:31;5.10;99.90
6903;DHT22;20232;49.408;8.702;2023-02-25T06:32:57;5.20;99.90
6903;DHT22;20232;49.408;8.702;2023-02-25T06:35:23;5.10;99.90
6903;DHT22;20232;49.408;8.702;2023-02-25T06:37:55;5.20;99.90
6903;DHT22;20232;49.408;8.702;2023-02-25T06:40:21;5.20;99.90
6903;DHT22;20232;49.408;8.702;2023-02-25T06:42:46;5.20;99.90
6903;DHT22;20232;49.408;8.702;2023-02-25T06:45:12;5.20;99.90
6903;DHT22;20232;49.408;8.702;2023-02-25T06:47:37;5.20;99.90
6903;DHT22;20232;49.408;8.702;2023-02-25T06:50:03;5.20;99.90
6903;DHT22;20232;49.408;8.702;2023-02-25T06:52:30;5.20;99.90
6903;DHT22;20232;49.408;8.702;2023-02-25T06:54:55;5.20;99.90
6903;DHT22;20232;49.408;8.702;2023-02-25T06:57:21;5.30;99.90
6903;DHT22;20232;49.408;8.702;2023-02-25T06:59:46;5.30;99.90
6903;DHT22;20232;49.408;8.702;2023-02-25T07:02:12;5.30;99.90
6903;DHT22;20232;49.408;8.702;2023-02-25T07:04:39;5.40;99.90
6903;DHT22;20232;49.408;8.702;2023-02-25T07:07:04;5.40;99.90
6903;DHT22;20232;49.408;8.702;2023-02-25T07:09:30;5.40;99.90
6903;DHT22;20232;49.408;8.702;2023-02-25T07:11:56;5.40;99.90
6903;DHT22;20232;49.408;8.702;2023-02-25T07:14:22;5.40;99.90
6903;DHT22;20232;49.408;8.702;2023-02-25T07:16:47;5.40;99.90
6903;DHT22;20232;49.408;8.702;2023-02-25T07:19:13;5.40;99.90
6903;DHT22;20232;49.408;8.702;2023-02-25T07:21:41;5.40;99.90
6903;DHT22;20232;49.408;8.702;2023-02-25T07:24:10;5.40;99.90
6903;DHT22;20232;49.408;8.702;2023-02-25T07:26:35;5.50;99.90
6903;DHT22;20232;49.408;8.702;2023-02-25T07:29:03;5.50;99.90
6903;DHT22;20232;49.408;8.702;2023-02-25T07:31:29;5.50;99.90
6903;DHT22;20232;49.408;8.702;2023-02-25T07:33:56;5.40;99.90
6903;DHT22;20232;49.408;8.702;2023-02-25T07:36:21;5.50;99.90
6903;DHT22;20232;49.408;8.702;2023-02-25T07:38:47;5.50;99.90
6903;DHT22;20232;49.408;8.702;2023-02-25T07:41:15;5.50;99.90
6903;DHT22;20232;49.408;8.702;2023-02-25T07:43:42;5.60;99.90
6903;DHT22;20232;49.408;8.702;2023-02-25T07:46:08;5.60;99.90
6903;DHT22;20232;49.408;8.702;2023-02-25T07:48:34;5.60;99.90
6903;DHT22;20232;49.408;8.702;2023-02-25T07:51:20;5.60;99.90
6903;DHT22;20232;49.408;8.702;2023-02-25T07:53:48;5.70;99.90
6903;DHT22;20232;49.408;8.702;2023-02-25T07:56:14;5.70;99.90
6903;DHT22;20232;49.408;8.702;2023-02-25T07:58:40;5.70;99.90
6903;DHT22;20232;49.408;8.702;2023-02-25T08:01:11;5.70;99.90
6903;DHT22;20232;49.408;8.702;2023-02-25T08:03:38;5.70;99.90
6903;DHT22;20232;49.408;8.702;2023-02-25T08:06:04;5.80;99.90
6903;DHT22;20232;49.408;8.702;2023-02-25T08:08:33;5.80;99.90
6903;DHT22;20232;49.408;8.702;2023-02-25T08:11:04;5.70;99.90
6903;DHT22;20232;49.408;8.702;2023-02-25T08:13:30;5.70;99.90
6903;DHT22;20232;49.408;8.702;2023-02-25T08:15:56;5.80;99.90
6903;DHT22;20232;49.408;8.702;2023-02-25T08:18:21;5.80;99.90
6903;DHT22;20232;49.408;8.702;2023-02-25T08:20:47;5.90;99.90
6903;DHT22;20232;49.408;8.702;2023-02-25T08:23:13;5.90;99.90
6903;DHT22;20232;49.408;8.702;2023-02-25T08:25:38;6.00;99.90
6903;DHT22;20232;49.408;8.702;2023-02-25T08:28:04;6.00;99.90
6903;DHT22;20232;49.408;8.702;2023-02-25T08:30:30;6.00;99.90
6903;DHT22;20232;49.408;8.702;2023-02-25T08:32:55;6.10;99.90
6903;DHT22;20232;49.408;8.702;2023-02-25T08:35:24;6.00;99.90
6903;DHT22;20232;49.408;8.702;2023-02-25T08:37:51;6.10;99.90
6903;DHT22;20232;49.408;8.702;2023-02-25T08:40:17;6.10;99.90
6903;DHT22;20232;49.408;8.702;2023-02-25T08:42:43;6.10;99.90
6903;DHT22;20232;49.408;8.702;2023-02-25T08:45:09;6.10;99.90
6903;DHT22;20232;49.408;8.702;2023-02-25T08:47:35;6.10;99.90
6903;DHT22;20232;49.408;8.702;2023-02-25T08:50:01;6.10;99.90
6903;DHT22;20232;49.408;8.702;2023-02-25T08:52:27;6.00;99.90
6903;DHT22;20232;49.408;8.702;2023-02-25T08:54:59;6.00;99.90
6903;DHT22;20232;49.408;8.702;2023-02-25T08:57:24;6.00;99.90
6903;DHT22;20232;49.408;8.702;2023-02-25T08:59:50;6.00;99.90
6903;DHT22;20232;49.408;8.702;2023-02-25T09:02:16;6.10;99.90
6903;DHT22;20232;49.408;8.702;2023-02-25T09:04:41;6.10;99.90
6903;DHT22;20232;49.408;8.702;2023-02-25T09:07:07;6.10;99.90
6903;DHT22;20232;49.408;8.702;2023-02-25T09:09:33;6.10;99.90
6903;DHT22;20232;49.408;8.702;2023-02-25T09:11:59;6.00;99.90
6903;DHT22;20232;49.408;8.702;2023-02-25T09:14:25;6.10;99.90
6903;DHT22;20232;49.408;8.702;2023-02-25T09:16:51;6.10;99.90
6903;DHT22;20232;49.408;8.702;2023-02-25T09:19:17;6.10;99.90
6903;DHT22;20232;49.408;8.702;2023-02-25T09:21:44;6.10;99.90
6903;DHT22;20232;49.408;8.702;2023-02-25T09:24:10;6.20;99.90
6903;DHT22;20232;49.408;8.702;2023-02-25T09:26:36;6.20;99.90
6903;DHT22;20232;49.408;8.702;2023-02-25T09:29:06;6.20;99.90
6903;DHT22;20232;49.408;8.702;2023-02-25T09:31:32;6.20;99.90
6903;DHT22;20232;49.408;8.702;2023-02-25T09:34:01;6.20;99.90
6903;DHT22;20232;49.408;8.702;2023-02-25T09:36:29;6.20;99.90
6903;DHT22;20232;49.408;8.702;2023-02-25T09:38:56;6.30;99.90
6903;DHT22;20232;49.408;8.702;2023-02-25T09:44:05;6.40;99.90
6903;DHT22;20232;49.408;8.702;2023-02-25T09:46:34;6.40;99.90
6903;DHT22;20232;49.408;8.702;2023-02-25T09:52:24;6.50;99.90
6903;DHT22;20232;49.408;8.702;2023-02-25T09:55:21;6.50;99.90
6903;DHT22;20232;49.408;8.702;2023-02-25T09:58:06;6.60;99.90
6903;DHT22;20232;49.408;8.702;2023-02-25T10:00:43;6.60;99.90
6903;DHT22;20232;49.408;8.702;2023-02-25T10:03:29;6.60;99.90
6903;DHT22;20232;49.408;8.702;2023-02-25T10:06:04;6.60;99.90
6903;DHT22;20232;49.408;8.702;2023-02-25T10:11:42;6.60;99.90
6903;DHT22;20232;49.408;8.702;2023-02-25T10:14:22;6.60;99.90
6903;DHT22;20232;49.408;8.702;2023-02-25T10:20:02;6.40;99.90
6903;DHT22;20232;49.408;8.702;2023-02-25T10:25:25;6.50;99.90
6903;DHT22;20232;49.408;8.702;2023-02-25T10:28:09;6.60;99.90
6903;DHT22;20232;49.408;8.702;2023-02-25T10:33:24;6.70;99.90
6903;DHT22;20232;49.408;8.702;2023-02-25T10:38:29;6.70;99.90
6903;DHT22;20232;49.408;8.702;2023-02-25T10:40:57;6.60;99.90
6903;DHT22;20232;49.408;8.702;2023-02-25T10:43:25;6.40;99.90
6903;DHT22;20232;49.408;8.702;2023-02-25T10:46:02;6.30;99.90
6903;DHT22;20232;49.408;8.702;2023-02-25T10:48:28;6.10;99.90
6903;DHT22;20232;49.408;8.702;2023-02-25T10:51:12;6.10;99.90
6903;DHT22;20232;49.408;8.702;2023-02-25T10:53:40;6.00;99.90
6903;DHT22;20232;49.408;8.702;2023-02-25T10:56:06;6.10;99.90
6903;DHT22;20232;49.408;8.702;2023-02-25T10:58:58;6.30;99.90
6903;DHT22;20232;49.408;8.702;2023-02-25T11:01:34;6.40;99.90
6903;DHT22;20232;49.408;8.702;2023-02-25T11:04:02;6.70;99.90
6903;DHT22;20232;49.408;8.702;2023-02-25T11:06:34;6.90;99.90
6903;DHT22;20232;49.408;8.702;2023-02-25T11:09:03;7.20;99.90
6903;DHT22;20232;49.408;8.702;2023-02-25T11:11:34;7.40;99.90
6903;DHT22;20232;49.408;8.702;2023-02-25T11:14:12;7.60;99.90
6903;DHT22;20232;49.408;8.702;2023-02-25T11:16:39;7.70;99.90
6903;DHT22;20232;49.408;8.702;2023-02-25T11:19:27;7.70;99.90
6903;DHT22;20232;49.408;8.702;2023-02-25T11:21:54;7.70;99.90
6903;DHT22;20232;49.408;8.702;2023-02-25T11:26:56;7.40;99.90
6903;DHT22;20232;49.408;8.702;2023-02-25T11:29:34;7.10;99.90
6903;DHT22;20232;49.408;8.702;2023-02-25T11:32:14;6.90;99.90
6903;DHT22;20232;49.408;8.702;2023-02-25T11:34:50;6.30;99.90
6903;DHT22;20232;49.408;8.702;2023-02-25T11:37:36;5.90;99.90
6903;DHT22;20232;49.408;8.702;2023-02-25T11:40:25;5.50;99.90
6903;DHT22;20232;49.408;8.702;2023-02-25T11:43:42;5.20;99.90
6903;DHT22;20232;49.408;8.702;2023-02-25T11:46:12;5.30;99.90
6903;DHT22;20232;49.408;8.702;2023-02-25T11:48:52;5.40;99.90
6903;DHT22;20232;49.408;8.702;2023-02-25T11:51:37;5.60;99.90
6903;DHT22;20232;49.408;8.702;2023-02-25T11:54:31;5.90;99.90
6903;DHT22;20232;49.408;8.702;2023-02-25T11:57:11;6.30;99.90
6903;DHT22;20232;49.408;8.702;2023-02-25T12:02:55;7.10;99.90
6903;DHT22;20232;49.408;8.702;2023-02-25T12:05:48;7.30;99.90
6903;DHT22;20232;49.408;8.702;2023-02-25T12:28:53;7.40;99.90
6903;DHT22;20232;49.408;8.702;2023-02-25T12:34:17;7.60;99.90
6903;DHT22;20232;49.408;8.702;2023-02-25T12:40:03;8.20;99.90
6903;DHT22;20232;49.408;8.702;2023-02-25T12:45:27;8.40;99.90
6903;DHT22;20232;49.408;8.702;2023-02-25T12:48:18;8.20;99.90
6903;DHT22;20232;49.408;8.702;2023-02-25T12:51:07;7.90;99.90
6903;DHT22;20232;49.408;8.702;2023-02-25T13:00:10;7.60;99.90
6903;DHT22;20232;49.408;8.702;2023-02-25T13:02:52;7.80;99.90
6903;DHT22;20232;49.408;8.702;2023-02-25T13:16:26;8.20;99.90
6903;DHT22;20232;49.408;8.702;2023-02-25T13:21:57;7.90;99.90
6903;DHT22;20232;49.408;8.702;2023-02-25T13:24:39;7.70;99.90
6903;DHT22;20232;49.408;8.702;2023-02-25T13:27:19;7.50;99.90
6903;DHT22;20232;49.408;8.702;2023-02-25T13:33:13;7.50;99.90
6903;DHT22;20232;49.408;8.702;2023-02-25T13:38:53;7.90;99.90
6903;DHT22;20232;49.408;8.702;2023-02-25T13:46:58;8.40;99.90
6903;DHT22;20232;49.408;8.702;2023-02-25T13:52:35;8.20;99.90
6903;DHT22;20232;49.408;8.702;2023-02-25T13:55:28;8.10;99.90
6903;DHT22;20232;49.408;8.702;2023-02-25T14:09:59;5.10;99.90
6903;DHT22;20232;49.408;8.702;2023-02-25T14:24:34;5.10;99.90
6903;DHT22;20232;49.408;8.702;2023-02-25T14:27:22;5.30;99.90
6903;DHT22;20232;49.408;8.702;2023-02-25T14:30:36;6.00;99.90
6903;DHT22;20232;49.408;8.702;2023-02-25T14:41:49;8.50;99.90
6903;DHT22;20232;49.408;8.702;2023-02-25T14:44:31;8.80;99.90
6903;DHT22;20232;49.408;8.702;2023-02-25T14:47:24;9.30;99.90
6903;DHT22;20232;49.408;8.702;2023-02-25T14:50:03;9.70;99.90
6903;DHT22;20232;49.408;8.702;2023-02-25T15:01:35;9.60;99.90
6903;DHT22;20232;49.408;8.702;2023-02-25T15:04:29;9.60;99.90
6903;DHT22;20232;49.408;8.702;2023-02-25T15:15:34;10.60;99.90
6903;DHT22;20232;49.408;8.702;2023-02-25T15:20:42;10.90;99.90
6903;DHT22;20232;49.408;8.702;2023-02-25T15:23:19;11.10;99.90
6903;DHT22;20232;49.408;8.702;2023-02-25T15:31:09;11.70;99.90
6903;DHT22;20232;49.408;8.702;2023-02-25T15:33:42;12.00;99.90
6903;DHT22;20232;49.408;8.702;2023-02-25T15:38:53;12.30;99.90
6903;DHT22;20232;49.408;8.702;2023-02-25T15:43:53;11.90;99.90
6903;DHT22;20232;49.408;8.702;2023-02-25T15:51:47;10.90;99.90
6903;DHT22;20232;49.408;8.702;2023-02-25T15:59:43;10.90;99.90
6903;DHT22;20232;49.408;8.702;2023-02-25T16:07:49;9.60;99.90
6903;DHT22;20232;49.408;8.702;2023-02-25T16:10:20;9.10;99.90
6903;DHT22;20232;49.408;8.702;2023-02-25T16:12:49;8.40;99.90
6903;DHT22;20232;49.408;8.702;2023-02-25T16:15:36;7.80;99.90
6903;DHT22;20232;49.408;8.702;2023-02-25T16:20:53;6.90;99.90
6903;DHT22;20232;49.408;8.702;2023-02-25T16:23:22;6.20;99.90
6903;DHT22;20232;49.408;8.702;2023-02-25T16:31:33;5.80;99.90
6903;DHT22;20232;49.408;8.702;2023-02-25T16:34:05;5.80;99.90
6903;DHT22;20232;49.408;8.702;2023-02-25T16:39:10;5.20;99.90
6903;DHT22;20232;49.408;8.702;2023-02-25T16:41:37;5.00;99.90
6903;DHT22;20232;49.408;8.702;2023-02-25T16:44:03;4.70;99.90
6903;DHT22;20232;49.408;8.702;2023-02-25T16:46:33;4.50;99.90
6903;DHT22;20232;49.408;8.702;2023-02-25T16:49:02;4.40;99.90
6903;DHT22;20232;49.408;8.702;2023-02-25T16:51:32;4.30;99.90
6903;DHT22;20232;49.408;8.702;2023-02-25T16:56:30;4.40;99.90
6903;DHT22;20232;49.408;8.702;2023-02-25T17:01:32;4.40;99.90
6903;DHT22;20232;49.408;8.702;2023-02-25T17:04:26;4.50;99.90
6903;DHT22;20232;49.408;8.702;2023-02-25T17:07:14;4.60;99.90
6903;DHT22;20232;49.408;8.702;2023-02-25T17:09:55;4.50;99.90
6903;DHT22;20232;49.408;8.702;2023-02-25T17:12:42;4.60;99.90
6903;DHT22;20232;49.408;8.702;2023-02-25T17:15:15;4.60;99.90
6903;DHT22;20232;49.408;8.702;2023-02-25T17:17:43;4.60;99.90
6903;DHT22;20232;49.408;8.702;2023-02-25T17:20:22;4.60;99.90
6903;DHT22;20232;49.408;8.702;2023-02-25T17:22:49;4.60;99.90
6903;DHT22;20232;49.408;8.702;2023-02-25T17:25:15;4.60;99.90
6903;DHT22;20232;49.408;8.702;2023-02-25T17:27:44;4.50;99.90
6903;DHT22;20232;49.408;8.702;2023-02-25T17:30:42;4.40;99.90
6903;DHT22;20232;49.408;8.702;2023-02-25T17:33:22;4.40;99.90
6903;DHT22;20232;49.408;8.702;2023-02-25T17:35:50;4.30;99.90
6903;DHT22;20232;49.408;8.702;2023-02-25T17:38:20;4.30;99.90
6903;DHT22;20232;49.408;8.702;2023-02-25T17:40:46;4.20;99.90
6903;DHT22;20232;49.408;8.702;2023-02-25T17:43:24;4.10;99.90
6903;DHT22;20232;49.408;8.702;2023-02-25T17:45:55;4.10;99.90
6903;DHT22;20232;49.408;8.702;2023-02-25T17:48:28;4.10;99.90
6903;DHT22;20232;49.408;8.702;2023-02-25T17:51:02;4.00;99.90
6903;DHT22;20232;49.408;8.702;2023-02-25T17:56:18;3.90;99.90
6903;DHT22;20232;49.408;8.702;2023-02-25T17:58:47;3.90;99.90
6903;DHT22;20232;49.408;8.702;2023-02-25T18:01:26;4.00;99.90
6903;DHT22;20232;49.408;8.702;2023-02-25T18:03:53;4.00;99.90
6903;DHT22;20232;49.408;8.702;2023-02-25T18:06:40;4.10;99.90
6903;DHT22;20232;49.408;8.702;2023-02-25T18:09:31;4.10;99.90
6903;DHT22;20232;49.408;8.702;2023-02-25T18:12:02;4.00;99.90
6903;DHT22;20232;49.408;8.702;2023-02-25T18:14:37;4.00;99.90
6903;DHT22;20232;49.408;8.702;2023-02-25T18:17:12;4.00;99.90
6903;DHT22;20232;49.408;8.702;2023-02-25T18:19:40;4.00;99.90
6903;DHT22;20232;49.408;8.702;2023-02-25T18:22:07;4.00;99.90
6903;DHT22;20232;49.408;8.702;2023-02-25T18:24:51;4.00;99.90
6903;DHT22;20232;49.408;8.702;2023-02-25T18:27:22;4.00;99.90
6903;DHT22;20232;49.408;8.702;2023-02-25T18:30:15;3.90;99.90
6903;DHT22;20232;49.408;8.702;2023-02-25T18:32:44;3.80;99.90
6903;DHT22;20232;49.408;8.702;2023-02-25T18:35:10;3.80;99.90
6903;DHT22;20232;49.408;8.702;2023-02-25T18:37:35;3.70;99.90
6903;DHT22;20232;49.408;8.702;2023-02-25T18:40:01;3.70;99.90
6903;DHT22;20232;49.408;8.702;2023-02-25T18:42:27;3.80;99.90
6903;DHT22;20232;49.408;8.702;2023-02-25T18:44:53;3.80;99.90
6903;DHT22;20232;49.408;8.702;2023-02-25T18:47:18;3.70;99.90
6903;DHT22;20232;49.408;8.702;2023-02-25T18:49:44;3.70;99.90
6903;DHT22;20232;49.408;8.702;2023-02-25T18:52:19;3.70;99.90
6903;DHT22;20232;49.408;8.702;2023-02-25T18:54:46;3.70;99.90
6903;DHT22;20232;49.408;8.702;2023-02-25T18:57:20;3.60;99.90
6903;DHT22;20232;49.408;8.702;2023-02-25T18:59:46;3.60;99.90
6903;DHT22;20232;49.408;8.702;2023-02-25T19:02:28;3.60;99.90
6903;DHT22;20232;49.408;8.702;2023-02-25T19:04:55;3.60;99.90
6903;DHT22;20232;49.408;8.702;2023-02-25T19:07:23;3.50;99.90
6903;DHT22;20232;49.408;8.702;2023-02-25T19:09:49;3.50;99.90
6903;DHT22;20232;49.408;8.702;2023-02-25T19:12:15;3.50;99.90
6903;DHT22;20232;49.408;8.702;2023-02-25T19:14:42;3.50;99.90
6903;DHT22;20232;49.408;8.702;2023-02-25T19:17:13;3.50;99.90
6903;DHT22;20232;49.408;8.702;2023-02-25T19:19:40;3.50;99.90
6903;DHT22;20232;49.408;8.702;2023-02-25T19:22:14;3.40;99.90
6903;DHT22;20232;49.408;8.702;2023-02-25T19:24:44;3.50;99.90
6903;DHT22;20232;49.408;8.702;2023-02-25T19:27:29;3.40;99.90
6903;DHT22;20232;49.408;8.702;2023-02-25T19:29:57;3.40;99.90
6903;DHT22;20232;49.408;8.702;2023-02-25T19:32:24;3.40;99.90
6903;DHT22;20232;49.408;8.702;2023-02-25T19:34:50;3.50;99.90
6903;DHT22;20232;49.408;8.702;2023-02-25T19:37:18;3.40;99.90
6903;DHT22;20232;49.408;8.702;2023-02-25T19:39:44;3.40;99.90
6903;DHT22;20232;49.408;8.702;2023-02-25T19:42:11;3.30;99.90
6903;DHT22;20232;49.408;8.702;2023-02-25T19:44:37;3.20;99.90
6903;DHT22;20232;49.408;8.702;2023-02-25T19:47:04;3.20;99.90
6903;DHT22;20232;49.408;8.702;2023-02-25T19:49:30;3.20;99.90
6903;DHT22;20232;49.408;8.702;2023-02-25T19:51:56;3.10;99.90
6903;DHT22;20232;49.408;8.702;2023-02-25T19:54:22;3.00;99.90
6903;DHT22;20232;49.408;8.702;2023-02-25T19:56:48;2.90;99.90
6903;DHT22;20232;49.408;8.702;2023-02-25T19:59:14;2.80;99.90
6903;DHT22;20232;49.408;8.702;2023-02-25T20:01:40;2.80;99.90
6903;DHT22;20232;49.408;8.702;2023-02-25T20:04:08;2.70;99.90
6903;DHT22;20232;49.408;8.702;2023-02-25T20:06:35;2.70;99.90
6903;DHT22;20232;49.408;8.702;2023-02-25T20:09:05;2.60;99.90
6903;DHT22;20232;49.408;8.702;2023-02-25T20:11:31;2.60;99.90
6903;DHT22;20232;49.408;8.702;2023-02-25T20:13:59;2.60;99.90
6903;DHT22;20232;49.408;8.702;2023-02-25T20:16:25;2.50;99.90
6903;DHT22;20232;49.408;8.702;2023-02-25T20:18:52;2.40;99.90
6903;DHT22;20232;49.408;8.702;2023-02-25T20:21:19;2.40;99.90
6903;DHT22;20232;49.408;8.702;2023-02-25T20:23:45;2.40;99.90
6903;DHT22;20232;49.408;8.702;2023-02-25T20:26:12;2.30;99.90
6903;DHT22;20232;49.408;8.702;2023-02-25T20:28:39;2.30;99.90
6903;DHT22;20232;49.408;8.702;2023-02-25T20:31:10;2.30;99.90
6903;DHT22;20232;49.408;8.702;2023-02-25T20:33:36;2.30;99.90
6903;DHT22;20232;49.408;8.702;2023-02-25T20:36:19;2.30;99.90
6903;DHT22;20232;49.408;8.702;2023-02-25T20:41:40;2.50;99.90
6903;DHT22;20232;49.408;8.702;2023-02-25T20:44:07;2.50;99.90
6903;DHT22;20232;49.408;8.702;2023-02-25T20:46:33;2.40;99.90
6903;DHT22;20232;49.408;8.702;2023-02-25T20:48:59;2.30;99.90
6903;DHT22;20232;49.408;8.702;2023-02-25T20:51:25;2.30;99.90
6903;DHT22;20232;49.408;8.702;2023-02-25T20:53:51;2.20;99.90
6903;DHT22;20232;49.408;8.702;2023-02-25T20:56:21;2.20;99.90
6903;DHT22;20232;49.408;8.702;2023-02-25T20:58:47;2.10;99.90
6903;DHT22;20232;49.408;8.702;2023-02-25T21:01:13;2.10;99.90
6903;DHT22;20232;49.408;8.702;2023-02-25T21:03:38;2.20;99.90
6903;DHT22;20232;49.408;8.702;2023-02-25T21:06:04;2.20;99.90
6903;DHT22;20232;49.408;8.702;2023-02-25T21:08:30;2.30;99.90
6903;DHT22;20232;49.408;8.702;2023-02-25T21:10:58;2.30;99.90
6903;DHT22;20232;49.408;8.702;2023-02-25T21:13:24;2.30;99.90
6903;DHT22;20232;49.408;8.702;2023-02-25T21:15:49;2.20;99.90
6903;DHT22;20232;49.408;8.702;2023-02-25T21:18:15;2.20;99.90
6903;DHT22;20232;49.408;8.702;2023-02-25T21:20:41;2.10;99.90
6903;DHT22;20232;49.408;8.702;2023-02-25T21:23:06;2.10;99.90
6903;DHT22;20232;49.408;8.702;2023-02-25T21:25:32;2.10;99.90
6903;DHT22;20232;49.408;8.702;2023-02-25T21:27:57;2.10;99.90
6903;DHT22;20232;49.408;8.702;2023-02-25T21:30:23;2.10;99.90
6903;DHT22;20232;49.408;8.702;2023-02-25T21:32:48;2.00;99.90
6903;DHT22;20232;49.408;8.702;2023-02-25T21:35:14;2.00;99.90
6903;DHT22;20232;49.408;8.702;2023-02-25T21:37:40;1.90;99.90
6903;DHT22;20232;49.408;8.702;2023-02-25T21:40:06;1.80;99.90
6903;DHT22;20232;49.408;8.702;2023-02-25T21:42:32;1.80;99.90
6903;DHT22;20232;49.408;8.702;2023-02-25T21:44:58;1.80;99.90
6903;DHT22;20232;49.408;8.702;2023-02-25T21:47:24;1.80;99.90
6903;DHT22;20232;49.408;8.702;2023-02-25T21:49:49;1.80;99.90
6903;DHT22;20232;49.408;8.702;2023-02-25T21:52:16;1.90;99.90
6903;DHT22;20232;49.408;8.702;2023-02-25T21:54:42;1.90;99.90
6903;DHT22;20232;49.408;8.702;2023-02-25T21:57:08;2.00;99.90
6903;DHT22;20232;49.408;8.702;2023-02-25T21:59:33;2.00;99.90
6903;DHT22;20232;49.408;8.702;2023-02-25T22:01:59;2.00;99.90
6903;DHT22;20232;49.408;8.702;2023-02-25T22:04:25;1.90;99.90
6903;DHT22;20232;49.408;8.702;2023-02-25T22:06:53;1.80;99.90
6903;DHT22;20232;49.408;8.702;2023-02-25T22:09:18;1.70;99.90
6903;DHT22;20232;49.408;8.702;2023-02-25T22:11:44;1.60;99.90
6903;DHT22;20232;49.408;8.702;2023-02-25T22:14:10;1.60;99.90
6903;DHT22;20232;49.408;8.702;2023-02-25T22:16:36;1.50;99.90
6903;DHT22;20232;49.408;8.702;2023-02-25T22:19:02;1.50;99.90
6903;DHT22;20232;49.408;8.702;2023-02-25T22:21:30;1.60;99.90
6903;DHT22;20232;49.408;8.702;2023-02-25T22:23:58;1.60;99.90
6903;DHT22;20232;49.408;8.702;2023-02-25T22:26:27;1.50;99.90
6903;DHT22;20232;49.408;8.702;2023-02-25T22:28:55;1.50;99.90
6903;DHT22;20232;49.408;8.702;2023-02-25T22:31:22;1.50;99.90
6903;DHT22;20232;49.408;8.702;2023-02-25T22:33:48;1.60;99.90
6903;DHT22;20232;49.408;8.702;2023-02-25T22:36:15;1.60;99.90
6903;DHT22;20232;49.408;8.702;2023-02-25T22:38:43;1.70;99.90
6903;DHT22;20232;49.408;8.702;2023-02-25T22:41:23;1.80;99.90
6903;DHT22;20232;49.408;8.702;2023-02-25T22:43:49;1.70;99.90
6903;DHT22;20232;49.408;8.702;2023-02-25T22:46:20;1.60;99.90
6903;DHT22;20232;49.408;8.702;2023-02-25T22:48:47;1.60;99.90
6903;DHT22;20232;49.408;8.702;2023-02-25T22:51:30;1.60;99.90
6903;DHT22;20232;49.408;8.702;2023-02-25T22:53:56;1.60;99.90
6903;DHT22;20232;49.408;8.702;2023-02-25T22:56:22;1.50;99.90
6903;DHT22;20232;49.408;8.702;2023-02-25T22:58:47;1.50;99.90
6903;DHT22;20232;49.408;8.702;2023-02-25T23:01:14;1.50;99.90
6903;DHT22;20232;49.408;8.702;2023-02-25T23:03:40;1.50;99.90
6903;DHT22;20232;49.408;8.702;2023-02-25T23:06:09;1.50;99.90
6903;DHT22;20232;49.408;8.702;2023-02-25T23:08:34;1.60;99.90
6903;DHT22;20232;49.408;8.702;2023-02-25T23:13:38;1.60;99.90
6903;DHT22;20232;49.408;8.702;2023-02-25T23:16:29;1.50;99.90
6903;DHT22;20232;49.408;8.702;2023-02-25T23:18:56;1.50;99.90
6903;DHT22;20232;49.408;8.702;2023-02-25T23:21:23;1.50;99.90
6903;DHT22;20232;49.408;8.702;2023-02-25T23:23:51;1.50;99.90
6903;DHT22;20232;49.408;8.702;2023-02-25T23:26:19;1.40;99.90
6903;DHT22;20232;49.408;8.702;2023-02-25T23:28:46;1.40;99.90
6903;DHT22;20232;49.408;8.702;2023-02-25T23:31:20;1.40;99.90
6903;DHT22;20232;49.408;8.702;2023-02-25T23:33:46;1.50;99.90
6903;DHT22;20232;49.408;8.702;2023-02-25T23:36:11;1.50;99.90
6903;DHT22;20232;49.408;8.702;2023-02-25T23:38:37;1.60;99.90
6903;DHT22;20232;49.408;8.702;2023-02-25T23:41:02;1.50;99.90
6903;DHT22;20232;49.408;8.702;2023-02-25T23:43:28;1.50;99.90
6903;DHT22;20232;49.408;8.702;2023-02-25T23:45:54;1.50;99.90
6903;DHT22;20232;49.408;8.702;2023-02-25T23:48:20;1.40;99.90
6903;DHT22;20232;49.408;8.702;2023-02-25T23:50:45;1.30;99.90
6903;DHT22;20232;49.408;8.702;2023-02-25T23:53:11;1.40;99.90
6903;DHT22;20232;49.408;8.702;2023-02-25T23:55:36;1.30;99.90
6903;DHT22;20232;49.408;8.702;2023-02-25T23:58:02;1.30;99.90
